KSPW/SPW METAR and TAF weather

Enter ICAO airport designator
Station Type Date Time Source
KSPW METAR 2019/04/18 13:53 UTC NOAA

KSPW 181353Z AUTO 33011KT 10SM FEW009 SCT023 OVC055 07/04 A2983 RMK AO2 SLP107 T00720044


Station Type Date Time Source
KSPW Decoded METAR 2019/04/18 13:53 UTC NOAA

SPENCER MUNICIPAL AIRPORT, IA, United States (KSPW) 43-10N 95-13W 403M
Apr 18, 2019 - 09:53 AM EDT / 2019.04.18 1353 UTC
Wind: from the NNW (330 degrees) at 13 MPH (11 KT):0
Visibility: 10 mile(s):0
Sky conditions: overcast
Temperature: 45.0 F (7.2 C)
Dew Point: 39.9 F (4.4 C)
Relative Humidity: 82%
Pressure (altimeter): 29.83 in. Hg (1010 hPa)
ob: KSPW 181353Z AUTO 33011KT 10SM FEW009 SCT023 OVC055 07/04 A2983 RMK AO2 SLP107 T00720044
cycle: 14

Station Type Date Time Source
KSPW TAF UTC NOAA

Error!

Example: see airport list